createdAt,value
2018-11-25T00:00:30.549Z,16.17
2018-11-25T00:02:59.033Z,16.32
2018-11-25T00:05:27.449Z,16.17
2018-11-25T00:07:55.871Z,14.65
2018-11-25T00:10:24.233Z,21.57
2018-11-25T00:12:52.625Z,15.30
2018-11-25T00:15:21.035Z,14.43
2018-11-25T00:17:49.394Z,15.53
2018-11-25T00:20:17.763Z,18.27
2018-11-25T00:22:46.172Z,19.92
2018-11-25T00:25:14.976Z,15.90
2018-11-25T00:27:43.371Z,15.00
2018-11-25T00:30:14.620Z,16.82
2018-11-25T00:32:43.071Z,21.00
2018-11-25T00:35:12.689Z,17.32
2018-11-25T00:37:48.058Z,16.65
2018-11-25T00:40:13.178Z,19.05
2018-11-25T00:42:41.604Z,18.27
2018-11-25T00:45:17.256Z,20.08
2018-11-25T00:47:45.707Z,21.37
2018-11-25T00:50:14.601Z,23.15
2018-11-25T00:52:42.961Z,23.57
2018-11-25T00:55:13.582Z,21.65
2018-11-25T00:57:41.953Z,21.85
2018-11-25T01:00:12.357Z,20.90
2018-11-25T01:02:40.772Z,18.40
2018-11-25T01:05:09.765Z,22.95
2018-11-25T01:07:38.164Z,19.15
2018-11-25T01:10:09.347Z,20.25
2018-11-25T01:12:37.723Z,17.12
2018-11-25T01:15:09.300Z,18.57
2018-11-25T01:17:37.847Z,19.35
2018-11-25T01:20:09.257Z,21.25
2018-11-25T01:22:37.749Z,23.15
2018-11-25T01:25:07.313Z,22.20
2018-11-25T01:27:35.709Z,21.15
2018-11-25T01:30:05.083Z,21.77
2018-11-25T01:32:33.511Z,18.65
2018-11-25T01:35:01.895Z,23.07
2018-11-25T01:37:30.264Z,22.30
2018-11-25T01:39:58.817Z,20.85
2018-11-25T01:42:27.297Z,19.73
2018-11-25T01:44:55.870Z,20.62
2018-11-25T01:47:24.264Z,17.25
2018-11-25T01:49:53.248Z,19.35
2018-11-25T01:52:21.753Z,18.60
2018-11-25T01:54:51.240Z,20.52
2018-11-25T01:57:19.736Z,20.12
2018-11-25T01:59:48.112Z,21.20
2018-11-25T02:02:16.469Z,18.37
2018-11-25T02:04:44.820Z,19.50
2018-11-25T02:07:13.329Z,19.17
2018-11-25T02:09:41.704Z,21.33
2018-11-25T02:12:10.085Z,21.57
2018-11-25T02:14:38.510Z,22.35
2018-11-25T02:17:06.897Z,22.70
2018-11-25T02:19:35.296Z,21.97
2018-11-25T02:22:03.720Z,22.60
2018-11-25T02:24:32.072Z,20.40
2018-11-25T02:27:00.508Z,20.17
2018-11-25T02:29:28.843Z,22.10
2018-11-25T02:31:57.304Z,24.30
2018-11-25T02:34:25.648Z,21.02
2018-11-25T02:36:54.010Z,25.52
2018-11-25T02:39:22.355Z,24.95
2018-11-25T02:41:50.763Z,19.48
2018-11-25T02:44:19.121Z,22.15
2018-11-25T02:46:47.477Z,20.48
2018-11-25T02:49:15.780Z,22.25
2018-11-25T02:51:44.119Z,18.48
2018-11-25T02:54:12.528Z,23.07
2018-11-25T02:56:40.960Z,17.60
2018-11-25T02:59:09.336Z,18.80
2018-11-25T03:01:37.701Z,18.12
2018-11-25T03:04:06.210Z,20.35
2018-11-25T03:06:34.634Z,21.00
2018-11-25T03:09:03.039Z,18.35
2018-11-25T03:11:31.415Z,19.30
2018-11-25T03:13:59.821Z,20.52
2018-11-25T03:16:28.172Z,21.62
2018-11-25T03:18:57.076Z,18.50
2018-11-25T03:21:25.431Z,18.67
2018-11-25T03:23:53.855Z,19.20
2018-11-25T03:26:22.241Z,21.55
2018-11-25T03:28:50.627Z,21.27
2018-11-25T03:31:19.057Z,21.27
2018-11-25T03:33:47.417Z,23.85
2018-11-25T03:36:15.840Z,23.90
2018-11-25T03:38:44.208Z,21.95
2018-11-25T03:41:12.586Z,23.87
2018-11-25T03:43:40.932Z,24.67
2018-11-25T03:46:09.248Z,22.87
2018-11-25T03:48:37.623Z,23.60
2018-11-25T03:51:06.187Z,22.80
2018-11-25T03:53:34.553Z,22.62
2018-11-25T03:56:02.949Z,25.27
2018-11-25T03:58:31.288Z,25.15
2018-11-25T04:00:59.696Z,22.70
2018-11-25T04:03:28.060Z,23.75
2018-11-25T04:05:56.407Z,25.85
2018-11-25T04:08:24.863Z,23.98
2018-11-25T04:10:53.235Z,28.15
2018-11-25T04:13:21.617Z,29.27
2018-11-25T04:15:49.983Z,23.65
2018-11-25T04:18:18.352Z,29.15
2018-11-25T04:20:46.748Z,24.18
2018-11-25T04:23:15.083Z,25.97
2018-11-25T04:25:43.438Z,25.35
2018-11-25T04:28:11.773Z,23.60
2018-11-25T04:30:40.147Z,25.80
2018-11-25T04:33:08.509Z,30.23
2018-11-25T04:35:36.959Z,28.30
2018-11-25T04:38:05.430Z,25.77
2018-11-25T04:40:33.776Z,25.70
2018-11-25T04:43:02.188Z,25.80
2018-11-25T04:45:30.606Z,26.48
2018-11-25T04:47:58.936Z,24.82
2018-11-25T04:50:27.401Z,21.77
2018-11-25T04:52:55.738Z,25.82
2018-11-25T04:55:24.123Z,24.70
2018-11-25T04:57:53.051Z,24.75
2018-11-25T05:00:21.480Z,24.87
2018-11-25T05:02:50.559Z,30.05
2018-11-25T05:05:18.930Z,28.27
2018-11-25T05:07:47.286Z,25.70
2018-11-25T05:10:16.540Z,21.73
2018-11-25T05:12:44.963Z,23.20
2018-11-25T05:15:15.292Z,28.10
2018-11-25T05:17:43.718Z,23.25
2018-11-25T05:20:12.750Z,23.92
2018-11-25T05:22:41.126Z,26.42
2018-11-25T05:25:11.745Z,27.22
2018-11-25T05:27:40.122Z,23.35
2018-11-25T05:30:10.972Z,22.87
2018-11-25T05:32:39.316Z,25.25
2018-11-25T05:35:09.300Z,23.55
2018-11-25T05:37:37.721Z,23.60
2018-11-25T05:40:08.218Z,22.70
2018-11-25T05:42:36.567Z,23.75
2018-11-25T05:45:06.847Z,24.55
2018-11-25T05:47:35.242Z,19.10
2018-11-25T05:50:03.654Z,22.48
2018-11-25T05:52:31.999Z,24.27
2018-11-25T05:55:00.351Z,23.50
2018-11-25T05:57:28.685Z,21.50
2018-11-25T05:59:57.056Z,19.82
2018-11-25T06:02:25.412Z,20.65
2018-11-25T06:04:53.794Z,27.73
2018-11-25T06:07:22.120Z,25.20
2018-11-25T06:09:50.520Z,21.25
2018-11-25T06:12:18.862Z,21.70
2018-11-25T06:14:47.291Z,22.22
2018-11-25T06:17:15.622Z,23.40
2018-11-25T06:19:43.989Z,19.50
2018-11-25T06:22:12.360Z,20.20
2018-11-25T06:24:40.728Z,24.95
2018-11-25T06:27:09.094Z,23.02
2018-11-25T06:29:37.460Z,24.02
2018-11-25T06:32:05.861Z,23.32
2018-11-25T06:34:34.217Z,22.22
2018-11-25T06:37:02.563Z,24.10
2018-11-25T06:39:30.914Z,18.65
2018-11-25T06:41:59.250Z,19.05
2018-11-25T06:44:27.649Z,22.70
2018-11-25T06:46:56.089Z,22.32
2018-11-25T06:49:24.458Z,25.97
2018-11-25T06:51:52.811Z,20.62
2018-11-25T06:54:21.163Z,23.87
2018-11-25T06:56:49.496Z,21.48
2018-11-25T06:59:17.861Z,20.97
2018-11-25T07:01:46.262Z,23.65
2018-11-25T07:04:14.619Z,24.82
2018-11-25T07:06:42.956Z,22.10
2018-11-25T07:09:11.306Z,22.45
2018-11-25T07:11:39.658Z,23.05
2018-11-25T07:14:07.996Z,21.45
2018-11-25T07:16:36.435Z,21.35
2018-11-25T07:19:05.042Z,20.72
2018-11-25T07:21:33.468Z,20.80
2018-11-25T07:24:01.828Z,20.00
2018-11-25T07:26:30.365Z,19.95
2018-11-25T07:28:58.714Z,19.10
2018-11-25T07:31:27.120Z,19.80
2018-11-25T07:33:55.546Z,19.12
2018-11-25T07:36:24.208Z,22.48
2018-11-25T07:38:52.871Z,17.10
2018-11-25T07:41:21.517Z,20.35
2018-11-25T07:43:49.979Z,16.90
2018-11-25T07:46:18.333Z,17.60
2018-11-25T07:48:46.732Z,18.50
2018-11-25T07:51:15.081Z,17.95
2018-11-25T07:53:43.456Z,19.15
2018-11-25T07:56:11.837Z,19.20
2018-11-25T07:58:40.187Z,17.02
2018-11-25T08:01:08.695Z,16.85
2018-11-25T08:03:37.065Z,17.62
2018-11-25T08:06:05.466Z,17.55
2018-11-25T08:08:33.886Z,17.15
2018-11-25T08:11:02.245Z,16.45
2018-11-25T08:13:30.650Z,20.48
2018-11-25T08:15:59.027Z,16.30
2018-11-25T08:18:27.391Z,17.70
2018-11-25T08:20:55.743Z,18.30
2018-11-25T08:23:24.073Z,19.90
2018-11-25T08:25:52.428Z,15.88
2018-11-25T08:28:20.772Z,17.00
2018-11-25T08:30:49.154Z,15.88
2018-11-25T08:33:17.533Z,18.20
2018-11-25T08:35:45.887Z,17.85
2018-11-25T08:38:14.221Z,16.97
2018-11-25T08:40:42.599Z,17.42
2018-11-25T08:43:11.277Z,16.85
2018-11-25T08:45:39.641Z,16.37
2018-11-25T08:48:08.015Z,18.60
2018-11-25T08:50:36.384Z,16.45
2018-11-25T08:53:04.850Z,20.57
2018-11-25T08:55:33.233Z,14.18
2018-11-25T08:58:01.610Z,14.50
2018-11-25T09:00:30.307Z,12.37
2018-11-25T09:02:58.683Z,15.55
2018-11-25T09:05:27.019Z,14.38
2018-11-25T09:07:55.368Z,14.50
2018-11-25T09:10:23.733Z,12.03
2018-11-25T09:12:56.590Z,13.25
2018-11-25T09:15:27.405Z,14.07
2018-11-25T09:17:55.773Z,17.70
2018-11-25T09:20:24.153Z,15.75
2018-11-25T09:22:52.877Z,16.70
2018-11-25T09:25:30.347Z,17.52
2018-11-25T09:27:59.937Z,17.23
2018-11-25T09:30:29.383Z,17.30
2018-11-25T09:32:57.771Z,13.62
2018-11-25T09:35:26.208Z,16.95
2018-11-25T09:37:54.568Z,16.30
2018-11-25T09:40:26.920Z,12.30
2018-11-25T09:42:55.868Z,14.85
2018-11-25T09:45:24.255Z,14.40
2018-11-25T09:47:52.681Z,15.65
2018-11-25T09:50:22.093Z,15.32
2018-11-25T09:52:50.543Z,13.72
2018-11-25T09:55:24.107Z,14.15
2018-11-25T09:57:53.721Z,14.28
2018-11-25T10:00:25.184Z,14.50
2018-11-25T10:02:53.591Z,14.07
2018-11-25T10:05:21.977Z,15.18
2018-11-25T10:07:50.364Z,15.15
2018-11-25T10:10:24.749Z,16.45
2018-11-25T10:12:53.712Z,18.00
2018-11-25T10:15:25.258Z,19.40
2018-11-25T10:17:59.378Z,22.05
2018-11-25T10:20:26.219Z,19.60
2018-11-25T10:22:54.630Z,22.48
2018-11-25T10:25:23.688Z,19.95
2018-11-25T10:27:52.163Z,22.10
2018-11-25T10:30:22.612Z,23.00
2018-11-25T10:32:53.896Z,27.07
2018-11-25T10:35:22.281Z,23.35
2018-11-25T10:37:50.744Z,25.72
2018-11-25T10:40:20.202Z,23.60
2018-11-25T10:42:48.642Z,25.43
2018-11-25T10:45:19.125Z,25.10
2018-11-25T10:47:47.529Z,24.10
2018-11-25T10:50:17.859Z,28.10
2018-11-25T10:52:46.297Z,24.30
2018-11-25T10:55:15.664Z,25.68
2018-11-25T10:57:44.956Z,25.32
2018-11-25T11:00:24.350Z,25.45
2018-11-25T11:02:58.042Z,23.52
2018-11-25T11:05:31.891Z,25.35
2018-11-25T11:08:00.273Z,27.00
2018-11-25T11:10:28.655Z,24.72
2018-11-25T11:12:57.042Z,25.95
2018-11-25T11:15:25.631Z,29.45
2018-11-25T11:17:54.077Z,28.87
2018-11-25T11:20:22.610Z,29.80
2018-11-25T11:22:50.955Z,26.30
2018-11-25T11:25:19.309Z,26.65
2018-11-25T11:27:47.782Z,25.57
2018-11-25T11:30:16.127Z,29.72
2018-11-25T11:32:45.885Z,28.07
2018-11-25T11:35:14.426Z,26.62
2018-11-25T11:37:42.798Z,27.55
2018-11-25T11:40:12.181Z,25.30
2018-11-25T11:42:40.546Z,24.90
2018-11-25T11:45:16.017Z,29.15
2018-11-25T11:47:45.142Z,26.00
2018-11-25T11:50:15.610Z,26.02
2018-11-25T11:52:43.940Z,28.65
2018-11-25T11:55:13.496Z,29.32
2018-11-25T11:57:42.407Z,26.48
2018-11-25T12:00:14.159Z,25.50
2018-11-25T12:02:42.644Z,22.87
2018-11-25T12:05:11.137Z,27.07
2018-11-25T12:07:39.521Z,28.38
2018-11-25T12:10:10.152Z,26.42
2018-11-25T12:12:38.646Z,29.10
2018-11-25T12:15:15.791Z,24.85
2018-11-25T12:17:44.171Z,29.48
2018-11-25T12:20:12.672Z,28.07
2018-11-25T12:22:41.057Z,28.25
2018-11-25T12:25:12.100Z,27.00
2018-11-25T12:27:40.624Z,29.60
2018-11-25T12:30:12.980Z,27.48
2018-11-25T12:32:41.846Z,27.37
2018-11-25T12:35:11.760Z,26.40
2018-11-25T12:37:40.189Z,27.05
2018-11-25T12:40:16.128Z,32.10
2018-11-25T12:42:47.571Z,26.52
2018-11-25T12:45:16.767Z,25.57
2018-11-25T12:47:45.118Z,41.68
2018-11-25T12:50:15.603Z,25.48
2018-11-25T12:52:43.992Z,26.87
2018-11-25T12:55:14.464Z,27.55
2018-11-25T12:57:42.882Z,25.65
2018-11-25T13:00:16.729Z,23.00
2018-11-25T13:02:45.173Z,26.60
2018-11-25T13:05:13.913Z,23.38
2018-11-25T13:07:42.267Z,26.05
2018-11-25T13:10:12.632Z,22.77
2018-11-25T13:12:41.362Z,24.12
2018-11-25T13:15:10.013Z,25.52
2018-11-25T13:17:38.422Z,24.18
2018-11-25T13:20:10.289Z,22.85
2018-11-25T13:22:39.197Z,25.55
2018-11-25T13:25:09.160Z,24.12
2018-11-25T13:27:37.680Z,26.07
2018-11-25T13:30:21.879Z,25.32
2018-11-25T13:32:51.272Z,26.85
2018-11-25T13:35:19.672Z,23.92
2018-11-25T13:37:48.068Z,26.70
2018-11-25T13:40:16.903Z,26.35
2018-11-25T13:42:45.482Z,25.68
2018-11-25T13:45:13.841Z,25.20
2018-11-25T13:47:42.268Z,21.80
2018-11-25T13:50:11.781Z,22.45
2018-11-25T13:52:40.287Z,21.50
2018-11-25T13:55:17.757Z,23.30
2018-11-25T13:57:46.141Z,22.37
2018-11-25T14:00:24.091Z,21.37
2018-11-25T14:02:52.482Z,22.67
2018-11-25T14:05:20.844Z,21.75
2018-11-25T14:07:49.258Z,18.00
2018-11-25T14:10:21.651Z,18.02
2018-11-25T14:12:50.102Z,19.57
2018-11-25T14:15:18.473Z,20.23
2018-11-25T14:17:46.803Z,17.82
2018-11-25T14:20:15.193Z,19.05
2018-11-25T14:22:43.631Z,20.45
2018-11-25T14:25:14.745Z,14.90
2018-11-25T14:27:43.612Z,14.63
2018-11-25T14:30:16.577Z,15.05
2018-11-25T14:32:45.067Z,17.90
2018-11-25T14:35:14.996Z,15.48
2018-11-25T14:37:43.440Z,13.40
2018-11-25T14:40:13.273Z,17.82
2018-11-25T14:42:41.734Z,17.02
2018-11-25T14:45:12.541Z,16.57
2018-11-25T14:47:41.005Z,17.20
2018-11-25T14:50:13.359Z,16.75
2018-11-25T14:52:42.469Z,12.95
2018-11-25T14:55:12.271Z,13.80
2018-11-25T14:57:41.520Z,14.55
2018-11-25T15:00:14.109Z,14.25
2018-11-25T15:02:43.107Z,20.35
2018-11-25T15:05:19.856Z,14.33
2018-11-25T15:07:48.221Z,15.43
2018-11-25T15:10:16.603Z,16.32
2018-11-25T15:12:45.073Z,15.90
2018-11-25T15:15:14.594Z,18.02
2018-11-25T15:17:44.049Z,14.30
2018-11-25T15:20:13.044Z,16.23
2018-11-25T15:22:43.119Z,14.98
2018-11-25T15:25:17.086Z,16.75
2018-11-25T15:27:45.618Z,16.52
2018-11-25T15:30:14.134Z,15.72
2018-11-25T15:32:43.163Z,16.20
2018-11-25T15:35:12.861Z,17.87
2018-11-25T15:37:43.106Z,20.08
2018-11-25T15:40:20.166Z,16.60
2018-11-25T15:42:49.659Z,19.15
2018-11-25T15:45:18.013Z,15.23
2018-11-25T15:47:49.189Z,17.20
2018-11-25T15:50:20.912Z,17.05
2018-11-25T15:52:49.562Z,16.57
2018-11-25T15:55:17.954Z,17.73
2018-11-25T15:57:46.339Z,18.12
2018-11-25T16:00:20.240Z,19.07
2018-11-25T16:02:48.661Z,20.50
2018-11-25T16:05:20.285Z,18.25
2018-11-25T16:07:48.641Z,18.67
2018-11-25T16:10:17.062Z,19.67
2018-11-25T16:12:46.861Z,17.42
2018-11-25T16:15:18.282Z,19.87
2018-11-25T16:17:46.641Z,20.37
2018-11-25T16:20:17.282Z,16.00
2018-11-25T16:22:46.308Z,18.73
2018-11-25T16:25:22.887Z,19.17
2018-11-25T16:27:57.273Z,21.17
2018-11-25T16:30:25.701Z,20.32
2018-11-25T16:32:58.295Z,20.43
2018-11-25T16:35:26.641Z,20.82
2018-11-25T16:37:55.763Z,18.52
2018-11-25T16:40:24.109Z,17.85
2018-11-25T16:42:52.499Z,20.68
2018-11-25T16:45:20.892Z,19.95
2018-11-25T16:47:49.268Z,18.15
2018-11-25T16:50:25.073Z,19.40
2018-11-25T16:52:46.653Z,19.60
2018-11-25T16:55:15.339Z,21.07
2018-11-25T16:57:44.335Z,23.70
2018-11-25T17:00:15.890Z,22.90
2018-11-25T17:02:44.254Z,21.12
2018-11-25T17:05:17.888Z,23.25
2018-11-25T17:07:47.612Z,22.60
2018-11-25T17:10:16.000Z,19.70
2018-11-25T17:12:44.419Z,20.25
2018-11-25T17:15:14.756Z,19.12
2018-11-25T17:17:43.187Z,18.75
2018-11-25T17:20:11.593Z,21.62
2018-11-25T17:22:40.066Z,17.82
2018-11-25T17:25:10.006Z,20.68
2018-11-25T17:27:38.347Z,20.10
2018-11-25T17:30:14.015Z,18.65
2018-11-25T17:32:42.826Z,22.48
2018-11-25T17:35:14.835Z,20.25
2018-11-25T17:37:43.187Z,21.40
2018-11-25T17:40:11.571Z,18.60
2018-11-25T17:42:40.034Z,17.98
2018-11-25T17:45:09.911Z,20.40
2018-11-25T17:47:38.355Z,21.37
2018-11-25T17:50:18.785Z,20.25
2018-11-25T17:52:47.651Z,19.87
2018-11-25T17:55:16.585Z,20.57
2018-11-25T17:57:44.903Z,18.60
2018-11-25T18:00:17.799Z,20.27
2018-11-25T18:02:46.206Z,22.48
2018-11-25T18:05:14.656Z,20.10
2018-11-25T18:07:43.039Z,20.08
2018-11-25T18:10:12.612Z,21.23
2018-11-25T18:12:41.486Z,18.85
2018-11-25T18:15:13.874Z,20.37
2018-11-25T18:17:50.673Z,18.65
2018-11-25T18:20:19.143Z,19.32
2018-11-25T18:22:48.648Z,19.75
2018-11-25T18:25:17.033Z,18.45
2018-11-25T18:27:45.375Z,20.40
2018-11-25T18:30:15.921Z,20.05
2018-11-25T18:32:45.047Z,19.27
2018-11-25T18:35:13.438Z,21.45
2018-11-25T18:37:41.859Z,18.42
2018-11-25T18:40:11.701Z,22.55
2018-11-25T18:42:40.255Z,23.83
2018-11-25T18:45:11.099Z,27.70
2018-11-25T18:47:39.619Z,24.60
2018-11-25T18:50:10.221Z,26.55
2018-11-25T18:52:38.715Z,20.80
2018-11-25T18:55:05.971Z,19.27
2018-11-25T18:57:34.563Z,21.20
2018-11-25T19:00:03.050Z,22.27
2018-11-25T19:02:41.934Z,21.65
2018-11-25T19:05:10.437Z,20.55
2018-11-25T19:07:38.857Z,19.50
2018-11-25T19:10:11.193Z,23.80
2018-11-25T19:12:44.325Z,24.60
2018-11-25T19:15:09.691Z,20.32
2018-11-25T19:17:38.055Z,21.62
2018-11-25T19:20:13.091Z,18.23
2018-11-25T19:22:41.841Z,20.60
2018-11-25T19:25:14.743Z,20.10
2018-11-25T19:27:43.743Z,22.90
2018-11-25T19:30:14.247Z,23.30
2018-11-25T19:32:43.383Z,20.57
2018-11-25T19:35:12.911Z,21.85
2018-11-25T19:37:41.838Z,20.10
2018-11-25T19:40:14.376Z,20.92
2018-11-25T19:42:43.097Z,21.90
2018-11-25T19:45:14.110Z,24.92
2018-11-25T19:47:42.554Z,22.58
2018-11-25T19:50:12.910Z,22.17
2018-11-25T19:52:41.345Z,21.82
2018-11-25T19:55:10.034Z,22.50
2018-11-25T19:57:38.404Z,23.85
2018-11-25T20:00:10.743Z,25.27
2018-11-25T20:02:39.119Z,26.30
2018-11-25T20:05:09.760Z,24.63
2018-11-25T20:07:38.195Z,21.52
2018-11-25T20:10:09.444Z,22.93
2018-11-25T20:12:42.169Z,24.82
2018-11-25T20:15:11.838Z,24.70
2018-11-25T20:17:40.577Z,25.25
2018-11-25T20:20:10.632Z,23.27
2018-11-25T20:22:39.037Z,22.42
2018-11-25T20:25:09.054Z,21.97
2018-11-25T20:27:42.839Z,23.32
2018-11-25T20:30:14.345Z,22.42
2018-11-25T20:32:48.051Z,23.85
2018-11-25T20:35:22.291Z,23.05
2018-11-25T20:37:56.097Z,23.07
2018-11-25T20:40:24.443Z,22.55
2018-11-25T20:42:52.808Z,28.00
2018-11-25T20:45:27.240Z,24.95
2018-11-25T20:47:56.826Z,24.70
2018-11-25T20:50:25.227Z,22.77
2018-11-25T20:52:58.874Z,26.15
2018-11-25T20:55:27.648Z,25.10
2018-11-25T20:57:56.040Z,24.98
2018-11-25T21:00:25.825Z,24.45
2018-11-25T21:02:54.291Z,22.73
2018-11-25T21:05:23.834Z,22.02
2018-11-25T21:07:50.978Z,22.62
2018-11-25T21:10:20.076Z,22.93
2018-11-25T21:12:50.054Z,26.30
2018-11-25T21:15:18.472Z,25.00
2018-11-25T21:17:46.815Z,21.42
2018-11-25T21:20:20.432Z,23.50
2018-11-25T21:22:48.791Z,23.90
2018-11-25T21:25:18.573Z,23.80
2018-11-25T21:27:47.082Z,25.88
2018-11-25T21:30:20.931Z,22.17
2018-11-25T21:32:50.598Z,24.90
2018-11-25T21:35:19.080Z,24.27
2018-11-25T21:37:47.531Z,23.05
2018-11-25T21:40:18.960Z,22.75
2018-11-25T21:42:47.499Z,24.72
2018-11-25T21:45:17.515Z,27.05
2018-11-25T21:47:46.227Z,27.32
2018-11-25T21:50:17.761Z,24.80
2018-11-25T21:52:46.183Z,24.55
2018-11-25T21:55:15.919Z,26.10
2018-11-25T21:57:44.379Z,25.77
2018-11-25T22:00:13.846Z,23.35
2018-11-25T22:02:42.351Z,23.05
2018-11-25T22:05:11.282Z,28.15
2018-11-25T22:07:39.726Z,23.27
2018-11-25T22:10:09.524Z,25.35
2018-11-25T22:12:38.814Z,22.15
2018-11-25T22:15:09.630Z,20.82
2018-11-25T22:17:38.076Z,24.23
2018-11-25T22:20:08.316Z,23.57
2018-11-25T22:22:36.727Z,21.37
2018-11-25T22:25:07.370Z,25.68
2018-11-25T22:27:35.801Z,22.77
2018-11-25T22:30:05.600Z,21.77
2018-11-25T22:32:33.975Z,24.55
2018-11-25T22:35:02.326Z,27.27
2018-11-25T22:37:30.709Z,25.10
2018-11-25T22:39:59.161Z,25.50
2018-11-25T22:42:27.501Z,26.10
2018-11-25T22:44:55.886Z,27.55
2018-11-25T22:47:25.180Z,27.50
2018-11-25T22:49:53.640Z,22.27
2018-11-25T22:52:22.242Z,26.75
2018-11-25T22:54:50.564Z,25.40
2018-11-25T22:57:18.935Z,22.87
2018-11-25T22:59:47.331Z,22.62
2018-11-25T23:02:15.743Z,24.95
2018-11-25T23:04:55.411Z,24.30
2018-11-25T23:07:24.035Z,22.07
2018-11-25T23:09:52.427Z,24.57
2018-11-25T23:12:21.098Z,21.00
2018-11-25T23:14:49.556Z,20.50
2018-11-25T23:17:17.920Z,22.30
2018-11-25T23:19:46.337Z,21.17
2018-11-25T23:22:14.727Z,22.30
2018-11-25T23:24:43.140Z,24.00
2018-11-25T23:27:11.479Z,22.70
2018-11-25T23:29:39.962Z,22.75
2018-11-25T23:32:08.481Z,23.45
2018-11-25T23:34:36.963Z,23.85
2018-11-25T23:37:05.525Z,20.10
2018-11-25T23:39:33.885Z,21.70
2018-11-25T23:42:02.433Z,18.40
2018-11-25T23:44:30.800Z,19.95
2018-11-25T23:46:59.234Z,20.20
2018-11-25T23:49:28.205Z,22.17
2018-11-25T23:51:56.586Z,21.45
2018-11-25T23:54:24.960Z,21.90
2018-11-25T23:56:53.322Z,20.30
2018-11-25T23:59:21.997Z,22.02
